Time;durP1;ratioP1;P1;durP2;ratioP2;P2;SDS_P1;SDS_P2;PMS_P1;PMS_P2;Temp;Humidity;BMP_temperature;BMP_pressure;BME280_temperature;BME280_humidity;BME280_pressure;Samples;Min_cycle;Max_cycle;Signal;HPM_P1;HPM_P2
2023/12/04 00:01:29;;;;;;;;;;;;;;;29.10;70.74;101055.75;5070671;28;65317;-34
2023/12/04 00:03:59;;;;;;;;;;;;;;;29.14;71.25;101054.28;5070835;28;70918;-34
2023/12/04 00:06:29;;;;;;;;;;;;;;;29.18;72.54;101066.34;5067918;28;65531;-35
2023/12/04 00:08:58;;;;;;;;;;;;;;;29.18;72.59;101071.75;5069027;28;70584;-33
2023/12/04 00:11:28;;;;;;;;;;;;;;;29.24;72.31;101065.53;5065946;28;65911;-33
2023/12/04 00:14:00;;;;;;;;;;;;;;;29.28;72.33;101072.22;5070475;28;70193;-35
2023/12/04 00:16:33;;;;;;;;;;;;;;;29.30;73.14;101080.91;5063964;28;66521;-33
2023/12/04 00:19:03;;;;;;;;;;;;;;;29.30;69.57;101080.91;5074085;27;70115;-33
2023/12/04 00:21:32;;;;;;;;;;;;;;;29.30;67.96;101086.31;5080061;27;67030;-33
2023/12/04 00:24:03;;;;;;;;;;;;;;;29.34;67.07;101098.41;5080693;27;69730;-34
2023/12/04 00:26:33;;;;;;;;;;;;;;;29.36;65.87;101099.03;5079094;28;65033;-36
2023/12/04 00:29:02;;;;;;;;;;;;;;;29.38;65.67;101105.06;5079331;28;70209;-35
2023/12/04 00:31:32;;;;;;;;;;;;;;;29.43;64.90;101117.13;5081169;27;66764;-34
2023/12/04 00:34:02;;;;;;;;;;;;;;;29.44;64.62;101113.38;5081049;27;69780;-33
2023/12/04 00:36:32;;;;;;;;;;;;;;;29.47;64.45;101118.38;5073782;27;65732;-33
2023/12/04 00:39:03;;;;;;;;;;;;;;;29.50;64.29;101126.06;5077318;27;69192;-33
2023/12/04 00:41:33;;;;;;;;;;;;;;;29.51;64.22;101125.06;5080017;27;66563;-34
2023/12/04 00:44:04;;;;;;;;;;;;;;;29.54;64.23;101127.34;5076532;28;70062;-33
2023/12/04 00:46:34;;;;;;;;;;;;;;;29.54;64.52;101130.03;5078143;27;66779;-33
2023/12/04 00:49:04;;;;;;;;;;;;;;;29.57;64.11;101140.44;5078909;27;69254;-34
2023/12/04 00:51:39;;;;;;;;;;;;;;;29.58;64.14;101137.50;5077163;27;66820;-34
2023/12/04 00:54:09;;;;;;;;;;;;;;;29.59;64.43;101139.19;5077322;27;70237;-34
2023/12/04 00:56:39;;;;;;;;;;;;;;;29.61;63.95;101137.13;5079029;28;66688;-34
2023/12/04 00:59:09;;;;;;;;;;;;;;;29.62;64.48;101138.78;5079273;28;70080;-33
2023/12/04 01:01:39;;;;;;;;;;;;;;;29.66;64.03;101139.22;5079176;27;66750;-34
2023/12/04 01:04:09;;;;;;;;;;;;;;;29.67;64.53;101140.06;5078050;27;69976;-34
2023/12/04 01:06:38;;;;;;;;;;;;;;;29.68;64.37;101145.28;5078811;27;66653;-34
2023/12/04 01:09:08;;;;;;;;;;;;;;;29.69;64.51;101143.41;5078503;27;69371;-34
2023/12/04 01:11:37;;;;;;;;;;;;;;;29.70;64.24;101145.91;5078531;27;65581;-33
2023/12/04 01:14:07;;;;;;;;;;;;;;;29.72;64.63;101145.69;5078221;28;71721;-33
2023/12/04 01:16:37;;;;;;;;;;;;;;;29.72;64.42;101143.81;5075509;27;66795;-33
2023/12/04 01:19:07;;;;;;;;;;;;;;;29.73;64.10;101140.09;5059693;28;70208;-33
2023/12/04 01:21:36;;;;;;;;;;;;;;;29.75;64.64;101132.56;5073573;28;67543;-33
2023/12/04 01:24:06;;;;;;;;;;;;;;;29.77;64.22;101135.91;5060518;28;69090;-33
2023/12/04 01:26:36;;;;;;;;;;;;;;;29.78;64.50;101129.50;5077736;28;66147;-34
2023/12/04 01:29:05;;;;;;;;;;;;;;;29.79;64.62;101127.59;5077812;27;70565;-33
2023/12/04 01:31:35;;;;;;;;;;;;;;;29.81;64.56;101126.38;5078704;27;66929;-35
2023/12/04 01:34:04;;;;;;;;;;;;;;;29.83;64.20;101132.38;5078334;27;70592;-35
2023/12/04 01:36:35;;;;;;;;;;;;;;;29.83;64.48;101135.06;5077875;27;66910;-34
2023/12/04 01:39:05;;;;;;;;;;;;;;;29.87;64.69;101130.09;5078414;28;70294;-34
2023/12/04 01:41:34;;;;;;;;;;;;;;;29.88;64.60;101131.75;5078021;28;66785;-33
2023/12/04 01:44:04;;;;;;;;;;;;;;;29.91;64.33;101135.94;5077446;27;70328;-34
2023/12/04 01:46:33;;;;;;;;;;;;;;;29.92;64.24;101132.16;5078136;27;66644;-34
2023/12/04 01:49:04;;;;;;;;;;;;;;;29.92;64.20;101121.34;5078022;27;70486;-33
2023/12/04 01:51:33;;;;;;;;;;;;;;;29.96;64.48;101117.22;5077907;27;65700;-34
2023/12/04 01:54:05;;;;;;;;;;;;;;;29.97;64.54;101124.28;5077380;27;69747;-33
2023/12/04 01:56:36;;;;;;;;;;;;;;;29.99;64.53;101116.78;5077840;27;65881;-37
2023/12/04 01:59:07;;;;;;;;;;;;;;;30.01;64.45;101117.41;5077604;27;69030;-33
2023/12/04 02:01:37;;;;;;;;;;;;;;;30.02;64.64;101122.59;5077969;27;66403;-34
2023/12/04 02:04:06;;;;;;;;;;;;;;;30.05;64.49;101121.34;5076033;27;69065;-33
2023/12/04 02:06:36;;;;;;;;;;;;;;;30.06;64.61;101123.88;5077900;28;66044;-34
2023/12/04 02:09:09;;;;;;;;;;;;;;;30.09;64.35;101119.06;5078085;27;69044;-33
2023/12/04 02:11:40;;;;;;;;;;;;;;;30.10;64.91;101126.16;5076214;27;65787;-34
2023/12/04 02:14:09;;;;;;;;;;;;;;;30.12;64.32;101114.09;5063850;28;70793;-33
2023/12/04 02:16:41;;;;;;;;;;;;;;;30.15;64.60;101110.94;5077625;27;66114;-34
2023/12/04 02:19:14;;;;;;;;;;;;;;;30.16;64.89;101118.00;5064070;28;69494;-34
2023/12/04 02:21:44;;;;;;;;;;;;;;;30.19;64.57;101122.19;5076556;28;66631;-33
2023/12/04 02:24:14;;;;;;;;;;;;;;;30.22;65.00;101121.78;5077570;27;69324;-33
2023/12/04 02:27:06;;;;;;;;;;;;;;;30.24;65.02;101125.13;5076025;27;65320;-33
2023/12/04 02:29:39;;;;;;;;;;;;;;;30.25;64.43;101127.59;5074312;28;69994;-34
2023/12/04 02:32:12;;;;;;;;;;;;;;;30.28;64.86;101135.31;5075561;27;66364;-34
2023/12/04 02:34:46;;;;;;;;;;;;;;;30.32;64.47;101143.03;5077206;27;63522;-33
2023/12/04 02:37:17;;;;;;;;;;;;;;;30.33;64.83;101133.84;5067165;28;66540;-33
2023/12/04 02:39:48;;;;;;;;;;;;;;;30.35;65.08;101123.66;5075281;28;71298;-33
2023/12/04 02:42:19;;;;;;;;;;;;;;;30.36;64.49;101122.59;5077375;28;65386;-33
2023/12/04 02:44:49;;;;;;;;;;;;;;;30.38;64.66;101126.75;5072282;27;69566;-34
2023/12/04 02:47:19;;;;;;;;;;;;;;;30.41;64.89;101128.22;5076857;27;66118;-34
2023/12/04 02:49:48;;;;;;;;;;;;;;;30.44;65.06;101125.09;5077135;27;69499;-33
2023/12/04 02:52:18;;;;;;;;;;;;;;;30.45;64.89;101121.31;5075140;28;66266;-34
2023/12/04 02:54:48;;;;;;;;;;;;;;;30.48;64.42;101126.34;5075904;27;69687;-33
2023/12/04 02:57:18;;;;;;;;;;;;;;;30.50;64.34;101113.41;5076977;27;66912;-33
2023/12/04 02:59:49;;;;;;;;;;;;;;;30.51;64.40;101115.09;5075515;27;70560;-34
2023/12/04 03:02:18;;;;;;;;;;;;;;;30.55;64.56;101120.91;5076524;27;65481;-33
2023/12/04 03:04:48;;;;;;;;;;;;;;;30.57;64.34;101122.34;5075056;28;69947;-34
2023/12/04 03:07:20;;;;;;;;;;;;;;;30.57;64.62;101110.69;5074880;27;66034;-34
2023/12/04 03:09:49;;;;;;;;;;;;;;;30.61;64.38;101110.03;5076301;27;69239;-34
2023/12/04 03:12:19;;;;;;;;;;;;;;;30.63;64.01;101107.97;5077055;27;66953;-34
2023/12/04 03:14:49;;;;;;;;;;;;;;;30.65;64.17;101100.47;5074297;27;69787;-34
2023/12/04 03:17:18;;;;;;;;;;;;;;;30.67;63.96;101103.78;5079937;27;66231;-34
2023/12/04 03:19:48;;;;;;;;;;;;;;;30.70;64.06;101092.53;5080424;27;70157;-33
2023/12/04 03:22:18;;;;;;;;;;;;;;;30.71;63.93;101091.47;5078207;28;65991;-34
2023/12/04 03:24:47;;;;;;;;;;;;;;;30.73;64.44;101086.69;5079825;27;70091;-35
2023/12/04 03:27:17;;;;;;;;;;;;;;;30.76;64.05;101079.16;5059570;28;67103;-33
2023/12/04 03:29:46;;;;;;;;;;;;;;;30.78;64.22;101071.66;5074828;28;70861;-34
2023/12/04 03:32:16;;;;;;;;;;;;;;;30.81;63.74;101071.25;5080648;28;66552;-33
2023/12/04 03:34:46;;;;;;;;;;;;;;;30.82;63.74;101067.53;5079962;27;69559;-33
2023/12/04 03:37:16;;;;;;;;;;;;;;;30.85;64.02;101067.09;5078846;27;66635;-32
2023/12/04 03:39:45;;;;;;;;;;;;;;;30.87;63.69;101070.38;5080212;28;69956;-33
2023/12/04 03:42:15;;;;;;;;;;;;;;;30.89;63.78;101073.72;5079678;27;66708;-32
2023/12/04 03:44:45;;;;;;;;;;;;;;;30.91;63.70;101060.78;5065663;27;69319;-33
2023/12/04 03:47:14;;;;;;;;;;;;;;;30.92;63.43;101055.19;5080281;27;66683;-33
2023/12/04 03:49:44;;;;;;;;;;;;;;;30.95;63.35;101051.19;5079537;28;69933;-34
2023/12/04 03:52:14;;;;;;;;;;;;;;;30.96;63.44;101044.72;5078501;27;66460;-33
2023/12/04 03:54:44;;;;;;;;;;;;;;;30.97;63.51;101043.66;5067189;28;69232;-34
2023/12/04 03:57:14;;;;;;;;;;;;;;;30.99;63.56;101038.88;5080058;27;66022;-33
2023/12/04 03:59:44;;;;;;;;;;;;;;;31.01;63.06;101036.78;5078231;27;69785;-34
2023/12/04 04:02:14;;;;;;;;;;;;;;;31.01;63.39;101039.50;5079425;28;66304;-35
2023/12/04 04:04:44;;;;;;;;;;;;;;;31.01;63.17;101023.25;5079764;28;70969;-34
2023/12/04 04:07:16;;;;;;;;;;;;;;;31.05;63.17;101024.44;5076671;27;66181;-34
2023/12/04 04:09:46;;;;;;;;;;;;;;;31.06;63.28;101020.69;5078027;28;70843;-34
2023/12/04 04:12:15;;;;;;;;;;;;;;;31.07;62.61;101011.53;5078926;27;66595;-34
2023/12/04 04:14:45;;;;;;;;;;;;;;;31.09;62.60;101006.72;5076433;28;69992;-34
2023/12/04 04:17:15;;;;;;;;;;;;;;;31.11;62.85;101006.50;5079025;27;67170;-33
2023/12/04 04:19:44;;;;;;;;;;;;;;;31.13;62.39;101007.09;5077784;27;70629;-33
2023/12/04 04:22:14;;;;;;;;;;;;;;;31.13;62.71;100994.38;5063686;28;65359;-34
2023/12/04 04:24:43;;;;;;;;;;;;;;;31.16;62.65;100993.94;5077992;27;70032;-34
2023/12/04 04:27:13;;;;;;;;;;;;;;;31.17;62.85;100989.34;5077512;27;66010;-34
2023/12/04 04:29:43;;;;;;;;;;;;;;;31.20;62.41;100977.25;5075612;27;70529;-35
2023/12/04 04:32:13;;;;;;;;;;;;;;;31.21;62.59;100976.22;5078687;27;66658;-34
2023/12/04 04:34:42;;;;;;;;;;;;;;;31.23;62.18;100971.38;5076356;27;70123;-34
2023/12/04 04:37:12;;;;;;;;;;;;;;;31.24;62.34;100968.47;5076718;27;65567;-33
2023/12/04 04:39:42;;;;;;;;;;;;;;;31.26;62.14;100960.09;5077558;28;70138;-34
2023/12/04 04:42:12;;;;;;;;;;;;;;;31.27;62.69;100956.34;5078512;28;66829;-33
2023/12/04 04:44:42;;;;;;;;;;;;;;;31.30;62.30;100947.78;5057236;28;69481;-34
2023/12/04 04:47:12;;;;;;;;;;;;;;;31.31;62.11;100938.59;5078607;27;66674;-34
2023/12/04 04:49:42;;;;;;;;;;;;;;;31.33;62.51;100936.47;5077837;27;70347;-35
2023/12/04 04:52:11;;;;;;;;;;;;;;;31.33;62.09;100933.78;5075881;27;66766;-34
2023/12/04 04:54:41;;;;;;;;;;;;;;;31.35;62.03;100927.09;5065389;27;70335;-35
2023/12/04 04:57:11;;;;;;;;;;;;;;;31.37;62.03;100916.03;5078155;28;66736;-34
2023/12/04 04:59:41;;;;;;;;;;;;;;;31.38;62.00;100909.56;5076032;27;70095;-34
2023/12/04 05:02:11;;;;;;;;;;;;;;;31.40;62.11;100912.91;5078029;27;65936;-33
2023/12/04 05:04:40;;;;;;;;;;;;;;;31.42;61.87;100910.78;5077341;27;69835;-33
2023/12/04 05:07:11;;;;;;;;;;;;;;;31.44;61.93;100905.16;5075983;27;66383;-34
2023/12/04 05:09:40;;;;;;;;;;;;;;;31.46;61.82;100901.16;5078235;27;70134;-34
2023/12/04 05:12:10;;;;;;;;;;;;;;;31.47;61.75;100897.38;5077625;27;66037;-35
2023/12/04 05:14:40;;;;;;;;;;;;;;;31.50;62.05;100891.50;5075388;27;70430;-34
2023/12/04 05:17:10;;;;;;;;;;;;;;;31.51;61.69;100893.19;5077903;27;65646;-34
2023/12/04 05:19:39;;;;;;;;;;;;;;;31.52;61.62;100875.84;5059936;28;70238;-33
2023/12/04 05:22:09;;;;;;;;;;;;;;;31.54;61.59;100871.03;5074704;27;66419;-34
2023/12/04 05:24:39;;;;;;;;;;;;;;;31.55;61.33;100861.84;5077728;27;69397;-33
2023/12/04 05:27:08;;;;;;;;;;;;;;;31.58;61.16;100864.09;5065017;28;66730;-33
2023/12/04 05:29:38;;;;;;;;;;;;;;;31.60;61.27;100859.28;5074488;27;69183;-33
2023/12/04 05:32:07;;;;;;;;;;;;;;;31.64;61.46;100858.84;5077066;28;66487;-34
2023/12/04 05:34:37;;;;;;;;;;;;;;;31.65;61.37;100849.63;5077184;27;70491;-33
2023/12/04 05:37:08;;;;;;;;;;;;;;;31.67;61.07;100842.94;5075674;27;66632;-34
2023/12/04 05:39:39;;;;;;;;;;;;;;;31.69;61.25;100845.44;5077225;27;69703;-34
2023/12/04 05:42:08;;;;;;;;;;;;;;;31.70;60.97;100833.53;5077625;27;66403;-34
2023/12/04 05:44:38;;;;;;;;;;;;;;;31.73;60.94;100835.78;5074854;27;70239;-35
2023/12/04 05:47:08;;;;;;;;;;;;;;;31.74;61.23;100838.28;5077873;27;66561;-34
2023/12/04 05:49:37;;;;;;;;;;;;;;;31.77;61.26;100839.69;5077207;27;71104;-34
2023/12/04 05:52:07;;;;;;;;;;;;;;;31.78;61.02;100831.31;5075057;27;66266;-34
2023/12/04 05:54:36;;;;;;;;;;;;;;;31.80;61.24;100825.69;5064089;27;70196;-34
2023/12/04 05:57:06;;;;;;;;;;;;;;;31.81;61.12;100821.91;5077536;27;65496;-35
2023/12/04 05:59:36;;;;;;;;;;;;;;;31.85;61.11;100825.00;5073468;28;70613;-34
2023/12/04 06:02:06;;;;;;;;;;;;;;;31.86;60.96;100818.53;5077270;27;66273;-34
2023/12/04 06:04:36;;;;;;;;;;;;;;;31.89;60.77;100818.88;5076530;27;69955;-33
2023/12/04 06:07:06;;;;;;;;;;;;;;;31.90;60.74;100815.13;5074291;27;66486;-35
2023/12/04 06:09:36;;;;;;;;;;;;;;;31.92;60.54;100817.63;5077286;27;70179;-33
2023/12/04 06:12:08;;;;;;;;;;;;;;;31.91;60.65;100805.97;5076750;27;66447;-34
2023/12/04 06:14:38;;;;;;;;;;;;;;;31.95;60.62;100807.13;5074834;27;69320;-33
2023/12/04 06:17:08;;;;;;;;;;;;;;;31.97;60.42;100810.47;5076818;27;66742;-33
2023/12/04 06:19:37;;;;;;;;;;;;;;;31.97;60.40;100796.06;5077332;27;70764;-34
2023/12/04 06:22:07;;;;;;;;;;;;;;;32.00;60.61;100796.44;5075520;28;66127;-33
2023/12/04 06:24:37;;;;;;;;;;;;;;;32.02;60.37;100797.03;5076255;27;69431;-33
2023/12/04 06:27:09;;;;;;;;;;;;;;;32.04;60.28;100800.34;5056238;28;66604;-33
2023/12/04 06:29:39;;;;;;;;;;;;;;;32.06;60.51;100797.41;5067565;28;70198;-33
2023/12/04 06:32:09;;;;;;;;;;;;;;;32.08;60.21;100791.75;5079098;27;66265;-34
2023/12/04 06:34:38;;;;;;;;;;;;;;;32.09;60.41;100785.25;5079997;27;70615;-34
2023/12/04 06:37:12;;;;;;;;;;;;;;;32.11;60.29;100792.09;5078014;27;67465;-34
2023/12/04 06:39:42;;;;;;;;;;;;;;;32.12;60.30;100784.78;5080022;27;70164;-34
2023/12/04 06:42:11;;;;;;;;;;;;;;;32.15;60.27;100787.03;5080288;27;66121;-33
2023/12/04 06:44:41;;;;;;;;;;;;;;;32.16;60.16;100780.56;5078729;27;70331;-34
2023/12/04 06:47:12;;;;;;;;;;;;;;;32.17;60.35;100779.50;5080339;27;66654;-34
2023/12/04 06:49:42;;;;;;;;;;;;;;;32.18;60.04;100778.44;5077822;28;70609;-33
2023/12/04 06:52:11;;;;;;;;;;;;;;;32.20;60.12;100776.31;5073547;28;67127;-33
2023/12/04 06:54:41;;;;;;;;;;;;;;;31.94;60.07;100726.81;5080186;27;70279;-34
2023/12/04 06:57:11;;;;;;;;;;;;;;;32.23;60.30;100770.44;5080335;27;66511;-33
2023/12/04 06:59:42;;;;;;;;;;;;;;;32.24;60.18;100761.25;5078850;27;70031;-33
2023/12/04 07:02:11;;;;;;;;;;;;;;;32.26;60.05;100759.09;5080240;28;67698;-34
2023/12/04 07:04:41;;;;;;;;;;;;;;;32.27;59.98;100752.63;5079955;27;69381;-35
2023/12/04 07:07:12;;;;;;;;;;;;;;;32.28;60.13;100757.00;5078457;28;66910;-34
2023/12/04 07:09:42;;;;;;;;;;;;;;;32.29;60.13;100747.81;5080343;27;70335;-33
2023/12/04 07:12:11;;;;;;;;;;;;;;;32.32;59.84;100746.47;5078884;28;66088;-34
2023/12/04 07:14:41;;;;;;;;;;;;;;;32.33;59.86;100745.44;5079757;27;70824;-33
2023/12/04 07:17:11;;;;;;;;;;;;;;;32.35;59.85;100746.88;5080006;28;65765;-33
2023/12/04 07:19:41;;;;;;;;;;;;;;;32.36;60.13;100743.09;5078774;28;69216;-34
2023/12/04 07:22:11;;;;;;;;;;;;;;;32.38;59.96;100740.97;5078883;28;66307;-33
2023/12/04 07:24:41;;;;;;;;;;;;;;;32.40;59.82;100743.44;5079800;27;70309;-33
2023/12/04 07:27:11;;;;;;;;;;;;;;;32.40;59.87;100732.56;5067995;27;65778;-33
2023/12/04 07:29:40;;;;;;;;;;;;;;;32.41;59.83;100735.06;5078355;28;70489;-33
2023/12/04 07:32:12;;;;;;;;;;;;;;;32.43;59.86;100738.38;5079915;27;66611;-33
2023/12/04 07:34:41;;;;;;;;;;;;;;;32.45;59.95;100736.22;5079170;27;70307;-33
2023/12/04 07:37:11;;;;;;;;;;;;;;;32.47;59.85;100738.75;5079341;27;66512;-34
2023/12/04 07:39:43;;;;;;;;;;;;;;;32.49;59.94;100736.66;5079224;28;70020;-33
2023/12/04 07:42:13;;;;;;;;;;;;;;;32.52;60.06;100724.50;5078346;28;65245;-35
2023/12/04 07:44:42;;;;;;;;;;;;;;;32.52;60.18;100725.31;5079551;27;70173;-34
2023/12/04 07:47:13;;;;;;;;;;;;;;;32.55;60.08;100718.59;5079607;28;65599;-33
2023/12/04 07:49:45;;;;;;;;;;;;;;;32.56;60.02;100718.34;5078370;27;69654;-33
2023/12/04 07:52:14;;;;;;;;;;;;;;;32.57;60.07;100721.88;5080128;27;66714;-34
2023/12/04 07:54:45;;;;;;;;;;;;;;;32.58;60.10;100713.50;5066854;28;70350;-34
2023/12/04 07:57:16;;;;;;;;;;;;;;;32.59;60.13;100715.16;5078031;27;66191;-34
2023/12/04 07:59:46;;;;;;;;;;;;;;;32.62;60.11;100711.13;5079573;28;70485;-34
2023/12/04 08:02:19;;;;;;;;;;;;;;;32.63;60.03;100710.09;5068044;28;66574;-34
2023/12/04 08:04:49;;;;;;;;;;;;;;;32.64;60.22;100706.28;5080471;27;70664;-34
2023/12/04 08:07:19;;;;;;;;;;;;;;;32.66;60.03;100709.63;5083072;27;65578;-34
2023/12/04 08:09:48;;;;;;;;;;;;;;;32.67;60.24;100712.06;5081858;28;69920;-34
2023/12/04 08:12:18;;;;;;;;;;;;;;;32.69;60.07;100714.56;5080597;27;67076;-33
2023/12/04 08:14:48;;;;;;;;;;;;;;;32.70;60.07;100699.91;5083073;27;70041;-34
2023/12/04 08:17:17;;;;;;;;;;;;;;;32.71;59.85;100701.59;5082581;27;66281;-33
2023/12/04 08:19:47;;;;;;;;;;;;;;;32.71;60.06;100701.59;5066715;27;70566;-34
2023/12/04 08:22:21;;;;;;;;;;;;;;;32.74;60.02;100703.00;5083017;28;67071;-33
2023/12/04 08:24:50;;;;;;;;;;;;;;;32.74;59.97;100706.53;5083011;27;70221;-33
2023/12/04 08:27:20;;;;;;;;;;;;;;;32.74;59.91;100695.69;5080152;27;66033;-34
2023/12/04 08:29:50;;;;;;;;;;;;;;;32.75;59.84;100696.50;5081996;27;70635;-33
2023/12/04 08:32:21;;;;;;;;;;;;;;;32.78;60.22;100696.84;5080336;27;64326;-33
2023/12/04 08:34:51;;;;;;;;;;;;;;;32.79;60.06;100695.78;5080198;27;70177;-34
2023/12/04 08:37:21;;;;;;;;;;;;;;;32.80;60.24;100697.44;5082525;27;66706;-34
2023/12/04 08:39:50;;;;;;;;;;;;;;;32.82;60.15;100698.03;5082419;27;70347;-34
2023/12/04 08:42:21;;;;;;;;;;;;;;;32.84;60.10;100706.75;5080487;27;66656;-33
2023/12/04 08:44:51;;;;;;;;;;;;;;;32.85;60.23;100711.13;5081846;27;69279;-34
2023/12/04 08:47:21;;;;;;;;;;;;;;;32.87;60.43;100705.44;5081967;27;67237;-34
2023/12/04 08:49:50;;;;;;;;;;;;;;;32.88;60.33;100710.66;5068392;28;70456;-32
2023/12/04 08:52:20;;;;;;;;;;;;;;;32.88;60.20;100697.06;5082466;28;66204;-33
2023/12/04 08:54:50;;;;;;;;;;;;;;;32.89;60.42;100712.28;5082101;27;70061;-34
2023/12/04 08:57:19;;;;;;;;;;;;;;;32.90;60.62;100711.25;5080043;27;66908;-33
2023/12/04 08:59:49;;;;;;;;;;;;;;;32.93;60.44;100720.78;5082194;27;70243;-34
2023/12/04 09:02:19;;;;;;;;;;;;;;;32.94;60.48;100720.56;5079892;28;67048;-33
2023/12/04 09:04:48;;;;;;;;;;;;;;;32.95;60.89;100724.09;5079351;27;70609;-34
2023/12/04 09:07:19;;;;;;;;;;;;;;;32.96;60.60;100719.50;5081638;28;66127;-34
2023/12/04 09:09:51;;;;;;;;;;;;;;;32.97;60.93;100726.59;5064874;28;69852;-33
2023/12/04 09:12:21;;;;;;;;;;;;;;;32.99;60.77;100727.16;5079616;27;67315;-34
2023/12/04 09:14:51;;;;;;;;;;;;;;;32.99;60.75;100735.31;5080922;27;69896;-34
2023/12/04 09:17:21;;;;;;;;;;;;;;;32.74;62.18;100741.84;5074526;28;66874;-34
2023/12/04 09:19:55;;;;;;;;;;;;;;;32.57;63.25;100732.72;5062801;28;69451;-34
2023/12/04 09:22:24;;;;;;;;;;;;;;;32.41;64.04;100740.50;5068213;27;66162;-35
2023/12/04 09:25:02;;;;;;;;;;;;;;;32.35;64.62;100746.88;5066786;28;70292;-33
2023/12/04 09:27:31;;;;;;;;;;;;;;;32.30;64.74;100733.16;5060752;28;66563;-35
2023/12/04 09:30:01;;;;;;;;;;;;;;;32.25;65.02;100746.59;5065033;28;69398;-33
2023/12/04 09:32:31;;;;;;;;;;;;;;;32.25;65.26;100741.19;5070261;28;66973;-34
2023/12/04 09:35:01;;;;;;;;;;;;;;;32.53;64.07;100742.44;5060589;28;70297;-35
2023/12/04 09:37:34;;;;;;;;;;;;;;;32.65;63.72;100738.66;5077614;28;66275;-33
2023/12/04 09:40:05;;;;;;;;;;;;;;;32.74;63.03;100747.28;5079676;28;70168;-33
2023/12/04 09:42:35;;;;;;;;;;;;;;;32.79;63.04;100747.41;5080150;28;64748;-34
2023/12/04 09:45:05;;;;;;;;;;;;;;;32.84;62.93;100749.41;5081162;27;69326;-34
2023/12/04 09:47:36;;;;;;;;;;;;;;;32.87;62.91;100749.75;5079083;27;66573;-34
2023/12/04 09:50:07;;;;;;;;;;;;;;;32.90;62.55;100754.72;5081676;27;69755;-35
2023/12/04 09:52:38;;;;;;;;;;;;;;;32.93;62.50;100756.97;5068335;28;66637;-34
2023/12/04 09:55:07;;;;;;;;;;;;;;;32.94;62.59;100755.88;5079115;27;70659;-34
2023/12/04 09:57:37;;;;;;;;;;;;;;;32.96;62.64;100769.25;5079917;27;66354;-34
2023/12/04 10:00:07;;;;;;;;;;;;;;;32.96;62.31;100777.41;5081333;27;69798;-35
2023/12/04 10:02:41;;;;;;;;;;;;;;;32.97;62.25;100775.50;5080023;27;67065;-33
2023/12/04 10:05:11;;;;;;;;;;;;;;;32.97;62.75;100779.03;5080657;28;70611;-34
2023/12/04 10:07:41;;;;;;;;;;;;;;;32.97;62.56;100780.94;5067862;28;65444;-35
2023/12/04 10:10:10;;;;;;;;;;;;;;;32.97;62.51;100786.38;5078945;27;70067;-35
2023/12/04 10:12:40;;;;;;;;;;;;;;;32.96;62.67;100790.13;5080909;27;66771;-35
2023/12/04 10:15:11;;;;;;;;;;;;;;;32.96;62.30;100793.69;5080595;27;69620;-34
2023/12/04 10:17:43;;;;;;;;;;;;;;;32.96;62.48;100792.84;5080188;28;67161;-34
2023/12/04 10:20:18;;;;;;;;;;;;;;;32.94;62.50;100793.94;5080932;27;70727;-35
2023/12/04 10:23:04;;;;;;;;;;;;;;;32.87;62.32;100795.91;5081110;27;66533;-34
2023/12/04 10:25:33;;;;;;;;;;;;;;;32.46;63.87;100792.25;5067276;28;69826;-34
2023/12/04 10:28:10;;;;;;;;;;;;;;;32.35;64.40;100801.16;5066273;27;66998;-35
2023/12/04 10:30:40;;;;;;;;;;;;;;;32.26;64.74;100802.53;5067992;28;70375;-35
2023/12/04 10:33:10;;;;;;;;;;;;;;;32.23;64.80;100816.56;5073692;28;66088;-35
2023/12/04 10:35:40;;;;;;;;;;;;;;;32.19;64.86;100818.09;5070123;28;70540;-34
2023/12/04 10:38:10;;;;;;;;;;;;;;;32.14;64.94;100812.53;5069219;28;66952;-35
2023/12/04 10:40:40;;;;;;;;;;;;;;;32.10;65.03;100820.31;5067034;28;70198;-36
2023/12/04 10:43:17;;;;;;;;;;;;;;;32.04;65.20;100813.91;5063064;28;65910;-35
2023/12/04 10:45:48;;;;;;;;;;;;;;;32.01;65.49;100808.97;5061582;28;69311;-36
2023/12/04 10:48:19;;;;;;;;;;;;;;;31.97;65.77;100813.16;5064812;28;67505;-34
2023/12/04 10:50:49;;;;;;;;;;;;;;;31.99;65.92;100813.78;5067839;28;70558;-34
2023/12/04 10:53:19;;;;;;;;;;;;;;;31.94;66.12;100820.94;5068686;28;66623;-34
2023/12/04 10:55:49;;;;;;;;;;;;;;;31.96;66.32;100818.84;5064782;27;70415;-34
2023/12/04 10:58:20;;;;;;;;;;;;;;;31.94;66.22;100824.47;5063263;28;65634;-32
2023/12/04 11:00:51;;;;;;;;;;;;;;;31.93;66.41;100828.25;5064099;28;70433;-36
2023/12/04 11:03:28;;;;;;;;;;;;;;;31.93;66.42;100839.13;5072122;27;66739;-34
2023/12/04 11:06:04;;;;;;;;;;;;;;;31.94;66.61;100843.47;5065366;28;69821;-34
2023/12/04 11:08:36;;;;;;;;;;;;;;;31.93;66.73;100836.41;5065809;28;66636;-37
2023/12/04 11:11:09;;;;;;;;;;;;;;;32.02;66.34;100835.03;5066016;28;69715;-34
2023/12/04 11:13:43;;;;;;;;;;;;;;;32.19;65.36;100846.06;5075297;27;66685;-34
2023/12/04 11:16:35;;;;;;;;;;;;;;;32.29;64.87;100845.53;5062929;28;70244;-36
2023/12/04 11:19:27;;;;;;;;;;;;;;;32.34;64.38;100848.34;5063846;28;66504;-33
2023/12/04 11:22:02;;;;;;;;;;;;;;;32.38;64.03;100846.84;5066413;28;69881;-35
2023/12/04 11:24:32;;;;;;;;;;;;;;;32.42;63.77;100847.19;5066492;27;65594;-36
2023/12/04 11:27:03;;;;;;;;;;;;;;;32.44;63.60;100854.06;5062191;28;69523;-35
2023/12/04 11:29:33;;;;;;;;;;;;;;;32.45;63.49;100850.25;5061876;28;65755;-35
2023/12/04 11:32:05;;;;;;;;;;;;;;;32.45;63.43;100850.25;5066766;27;70465;-34
2023/12/04 11:34:36;;;;;;;;;;;;;;;32.46;63.27;100849.25;5065563;28;66587;-34
2023/12/04 11:37:05;;;;;;;;;;;;;;;32.47;63.12;100847.38;5065047;28;70142;-35
2023/12/04 11:39:35;;;;;;;;;;;;;;;32.47;63.30;100853.63;5065872;28;66130;-36
2023/12/04 11:42:11;;;;;;;;;;;;;;;32.47;63.17;100859.03;5067834;28;69525;-37
2023/12/04 11:44:42;;;;;;;;;;;;;;;32.49;63.14;100866.97;5077153;28;65982;-35
2023/12/04 11:47:12;;;;;;;;;;;;;;;32.47;63.15;100872.63;5071217;28;71623;-35
2023/12/04 11:49:41;;;;;;;;;;;;;;;32.47;63.21;100869.91;5083233;27;66314;-34
2023/12/04 11:52:11;;;;;;;;;;;;;;;32.47;63.00;100872.63;5076743;27;69267;-34
2023/12/04 11:54:57;;;;;;;;;;;;;;;32.46;62.94;100879.13;5069243;28;66401;-35
2023/12/04 11:57:32;;;;;;;;;;;;;;;32.46;63.22;100875.59;5070126;28;70134;-35
2023/12/04 12:00:25;;;;;;;;;;;;;;;32.45;63.06;100882.84;5083638;27;65270;-35
2023/12/04 12:03:02;;;;;;;;;;;;;;;32.43;63.18;100885.00;5062574;28;70133;-35
2023/12/04 12:05:50;;;;;;;;;;;;;;;32.43;62.99;100889.56;5073245;28;65248;-35
2023/12/04 12:08:23;;;;;;;;;;;;;;;32.43;63.18;100900.44;5078188;28;70207;-35
2023/12/04 12:10:54;;;;;;;;;;;;;;;32.41;63.18;100903.38;5071380;28;66215;-37
2023/12/04 12:13:26;;;;;;;;;;;;;;;32.40;63.44;100899.03;5069769;28;70839;-34
2023/12/04 12:15:58;;;;;;;;;;;;;;;32.39;63.48;100905.50;5064002;28;65552;-35
2023/12/04 12:18:28;;;;;;;;;;;;;;;32.39;63.45;100919.06;5064595;28;70341;-37
2023/12/04 12:20:58;;;;;;;;;;;;;;;32.37;63.33;100923.91;5070802;28;66216;-35
2023/12/04 12:23:29;;;;;;;;;;;;;;;32.37;63.31;100929.31;5069135;28;69683;-36
2023/12/04 12:26:00;;;;;;;;;;;;;;;32.36;63.25;100941.25;5073833;28;65318;-34
2023/12/04 12:28:34;;;;;;;;;;;;;;;32.35;63.53;100936.06;5079671;28;70087;-37
2023/12/04 12:31:05;;;;;;;;;;;;;;;32.33;63.36;100936.28;5066769;28;66133;-34
2023/12/04 12:33:35;;;;;;;;;;;;;;;32.32;63.55;100948.22;5082213;27;69694;-36
2023/12/04 12:36:05;;;;;;;;;;;;;;;32.32;63.29;100950.06;5082937;27;66498;-35
2023/12/04 12:38:35;;;;;;;;;;;;;;;32.30;63.61;100955.75;5072088;28;69824;-35
2023/12/04 12:41:10;;;;;;;;;;;;;;;32.29;63.49;100954.09;5082981;28;66671;-34
2023/12/04 12:43:40;;;;;;;;;;;;;;;32.30;63.67;100949.50;5080879;27;70748;-41
2023/12/04 12:46:10;;;;;;;;;;;;;;;32.28;63.96;100957.84;5082988;28;67086;-36
2023/12/04 12:48:39;;;;;;;;;;;;;;;32.28;64.22;100955.13;5080284;27;69774;-35
2023/12/04 12:51:11;;;;;;;;;;;;;;;32.27;64.29;100961.63;5084422;27;66475;-34
2023/12/04 12:53:41;;;;;;;;;;;;;;;32.26;64.33;100959.97;5082732;27;70598;-33